Time;durP1;ratioP1;P1;durP2;ratioP2;P2;SDS_P1;SDS_P2;PMS_P1;PMS_P2;Temp;Humidity;BMP_temperature;BMP_pressure;BME280_temperature;BME280_humidity;BME280_pressure;Samples;Min_cycle;Max_cycle;Signal;HPM_P1;HPM_P2
2022/06/03 00:01:17;;;;;;;6.20;4.10;;;;;;;15.10;55.81;101994.66;4965868;28;20504;-70
2022/06/03 00:04:20;;;;;;;6.32;3.92;;;;;;;15.06;56.11;101994.56;4957626;28;20540;-70
2022/06/03 00:07:11;;;;;;;5.70;4.15;;;;;;;15.00;56.03;101990.09;5020607;28;20404;-69
2022/06/03 00:10:15;;;;;;;5.30;3.78;;;;;;;14.97;56.26;101993.47;5021273;28;20506;-70
2022/06/03 00:13:09;;;;;;;5.10;4.10;;;;;;;14.89;56.65;101992.38;5015642;28;20044;-69
2022/06/03 00:15:53;;;;;;;4.30;3.88;;;;;;;14.88;56.47;101990.63;5022654;28;20034;-70
2022/06/03 00:18:55;;;;;;;5.68;3.95;;;;;;;14.87;56.78;101991.47;5018593;28;20054;-70
2022/06/03 00:21:39;;;;;;;6.22;4.13;;;;;;;14.82;57.03;101993.03;5018532;28;20030;-70
2022/06/03 00:24:13;;;;;;;6.75;3.92;;;;;;;14.74;57.25;101994.50;5020157;28;20060;-70
2022/06/03 00:27:02;;;;;;;5.60;4.13;;;;;;;14.78;57.01;101987.72;5020266;28;20034;-70
2022/06/03 00:29:36;;;;;;;5.78;3.92;;;;;;;14.70;57.34;101985.78;5021391;28;20130;-70
2022/06/03 00:32:20;;;;;;;4.28;3.88;;;;;;;14.70;57.18;101988.38;5014712;28;20519;-71
2022/06/03 00:34:58;;;;;;;4.72;4.22;;;;;;;14.72;57.12;101983.25;5019795;28;20116;-71
2022/06/03 00:37:42;;;;;;;6.03;4.20;;;;;;;14.72;57.19;101978.94;5024947;28;20028;-71
2022/06/03 00:40:24;;;;;;;5.95;4.20;;;;;;;14.71;57.13;101986.66;5023060;28;20061;-71
2022/06/03 00:43:10;;;;;;;4.60;4.20;;;;;;;14.72;57.06;101980.66;5026256;28;20112;-71
2022/06/03 00:45:57;;;;;;;5.93;4.22;;;;;;;14.64;57.42;101972.69;5025662;28;20107;-71
2022/06/03 00:48:49;;;;;;;4.57;4.00;;;;;;;14.64;57.50;101970.09;5022388;28;20122;-72
2022/06/03 00:51:14;;;;;;;4.97;4.10;;;;;;;14.64;57.45;101979.56;5029254;28;20151;-71
2022/06/03 00:54:32;;;;;;;4.35;3.90;;;;;;;14.62;57.44;101976.94;5022993;28;20492;-71
2022/06/03 00:57:25;;;;;;;5.78;3.97;;;;;;;14.59;57.58;101973.38;4942344;28;20043;-71
2022/06/03 00:59:58;;;;;;;6.68;4.13;;;;;;;14.54;57.85;101967.19;5025169;28;20025;-71
2022/06/03 01:02:53;;;;;;;7.15;4.03;;;;;;;14.62;58.02;101968.25;5024138;28;20026;-71
2022/06/03 01:05:21;;;;;;;6.50;3.97;;;;;;;14.59;57.82;101974.25;5026291;28;20555;-71
2022/06/03 01:07:56;;;;;;;5.53;4.00;;;;;;;14.57;57.64;101967.28;5025544;28;20033;-71
2022/06/03 01:10:27;;;;;;;5.07;3.97;;;;;;;14.50;57.82;101963.63;5029149;28;20029;-71
2022/06/03 01:13:20;;;;;;;6.90;4.32;;;;;;;14.55;57.72;101963.75;5024847;28;20140;-71
2022/06/03 01:16:42;;;;;;;4.65;4.00;;;;;;;14.55;58.04;101966.34;5023982;28;20048;-72
2022/06/03 01:19:30;;;;;;;8.02;4.40;;;;;;;14.51;57.91;101965.38;4949698;28;20035;-71
2022/06/03 01:22:15;;;;;;;5.57;4.15;;;;;;;14.53;57.99;101957.66;4943530;28;20035;-71
2022/06/03 01:25:10;;;;;;;5.75;4.00;;;;;;;14.51;57.83;101956.75;5004805;28;20549;-71
2022/06/03 01:27:50;;;;;;;5.93;4.10;;;;;;;14.47;58.20;101954.06;5023272;28;20096;-71
2022/06/03 01:30:49;;;;;;;5.18;4.00;;;;;;;14.45;58.09;101950.53;5025078;28;20029;-71
2022/06/03 01:33:22;;;;;;;4.65;4.03;;;;;;;14.36;58.42;101947.66;5023897;28;20044;-71
2022/06/03 01:35:53;;;;;;;6.22;4.45;;;;;;;14.42;58.46;101949.53;5024920;28;20030;-71
2022/06/03 01:38:36;;;;;;;6.10;4.38;;;;;;;14.44;58.26;101942.72;5019650;28;20041;-71
2022/06/03 01:41:20;;;;;;;6.00;4.15;;;;;;;14.43;58.43;101943.53;5024207;28;20025;-71
2022/06/03 01:44:16;;;;;;;5.32;4.22;;;;;;;14.45;58.36;101944.47;5023639;28;20033;-71
2022/06/03 01:47:06;;;;;;;4.75;3.97;;;;;;;14.45;58.28;101944.47;5027560;28;20034;-71
2022/06/03 01:49:44;;;;;;;4.28;3.80;;;;;;;14.42;58.51;101934.88;5025029;28;20156;-72
2022/06/03 01:52:33;;;;;;;6.47;4.10;;;;;;;14.38;58.53;101930.47;5025714;28;20184;-71
2022/06/03 01:55:04;;;;;;;4.72;3.85;;;;;;;14.32;58.88;101930.31;5024067;28;20037;-71
2022/06/03 01:58:05;;;;;;;5.35;4.40;;;;;;;14.39;58.58;101928.78;5021701;28;20037;-71
2022/06/03 02:00:39;;;;;;;5.47;4.13;;;;;;;14.43;58.92;101930.59;5019076;28;20025;-71
2022/06/03 02:03:23;;;;;;;4.95;4.13;;;;;;;14.46;58.42;101931.59;5022490;28;20099;-72
2022/06/03 02:06:26;;;;;;;5.53;4.15;;;;;;;14.47;58.37;101925.59;5024152;28;20033;-71
2022/06/03 02:08:51;;;;;;;5.68;4.18;;;;;;;14.41;58.91;101925.38;5025656;28;20111;-71
2022/06/03 02:11:35;;;;;;;4.15;3.75;;;;;;;14.44;58.66;101928.06;5028687;28;20029;-71
2022/06/03 02:14:37;;;;;;;5.10;4.25;;;;;;;14.44;58.54;101928.06;5021713;28;20047;-71
2022/06/03 02:17:12;;;;;;;7.82;4.35;;;;;;;14.43;58.70;101926.28;5025755;28;20041;-71
2022/06/03 02:19:49;;;;;;;5.00;4.15;;;;;;;14.44;59.12;101924.59;5025215;28;20048;-71
2022/06/03 02:22:40;;;;;;;5.28;4.32;;;;;;;14.47;58.81;101919.53;5023694;28;20039;-71
2022/06/03 02:25:24;;;;;;;4.97;4.05;;;;;;;14.45;59.25;101923.78;5022677;28;20079;-71
2022/06/03 02:28:28;;;;;;;7.32;3.78;;;;;;;14.48;59.26;101923.88;5016147;28;20761;-71
2022/06/03 02:31:09;;;;;;;6.60;4.05;;;;;;;14.45;59.69;101916.00;5017862;28;20116;-71
2022/06/03 02:33:59;;;;;;;4.25;3.85;;;;;;;14.46;59.59;101916.06;5023470;28;20065;-71
2022/06/03 02:36:33;;;;;;;5.28;3.90;;;;;;;14.45;59.34;101913.41;5025408;28;20036;-71
2022/06/03 02:39:30;;;;;;;4.35;3.88;;;;;;;14.41;59.03;101921.91;5020666;28;20045;-71
2022/06/03 02:42:33;;;;;;;4.75;4.10;;;;;;;14.42;59.57;101913.31;5025819;28;20092;-71
2022/06/03 02:44:59;;;;;;;6.80;4.13;;;;;;;14.29;60.29;101912.09;5025982;28;20025;-71
2022/06/03 02:47:40;;;;;;;4.72;4.28;;;;;;;14.36;59.92;101914.00;5030027;28;20479;-71
2022/06/03 02:50:30;;;;;;;4.78;4.30;;;;;;;14.36;60.14;101913.13;5023169;28;20078;-71
2022/06/03 02:53:29;;;;;;;6.45;4.20;;;;;;;14.37;59.97;101902.81;5024072;28;20090;-71
2022/06/03 02:55:55;;;;;;;;;;;;;;;14.47;59.20;101901.41;5023239;28;20197;-71
2022/06/03 02:58:56;;;;;;;5.55;4.28;;;;;;;14.26;59.71;101896.47;5021774;28;20023;-71
2022/06/03 03:01:42;;;;;;;5.07;4.25;;;;;;;14.22;59.82;101897.22;5013606;28;20084;-71
2022/06/03 03:04:10;;;;;;;5.55;4.55;;;;;;;14.07;60.44;101889.84;5022365;28;20090;-71
2022/06/03 03:06:47;;;;;;;6.32;4.57;;;;;;;14.06;60.30;101892.41;5021942;28;20032;-71
2022/06/03 03:09:34;;;;;;;5.80;4.57;;;;;;;14.07;60.15;101904.50;5020425;28;20153;-71
2022/06/03 03:12:15;;;;;;;7.82;4.85;;;;;;;13.99;60.72;101909.44;5021412;28;20021;-71
2022/06/03 03:15:06;;;;;;;6.53;4.28;;;;;;;13.93;60.90;101910.13;5025882;28;20039;-71
2022/06/03 03:17:43;;;;;;;7.60;5.10;;;;;;;13.86;61.48;101909.91;5022014;28;20479;-71
2022/06/03 03:20:43;;;;;;;6.47;4.68;;;;;;;13.87;61.19;101909.94;5023545;28;20113;-71
2022/06/03 03:23:23;;;;;;;6.05;4.72;;;;;;;13.77;62.37;101897.59;5025934;28;20056;-71
2022/06/03 03:26:11;;;;;;;5.82;4.85;;;;;;;13.76;61.78;101900.09;5017726;28;20108;-71
2022/06/03 03:28:54;;;;;;;5.30;4.75;;;;;;;13.75;61.84;101891.47;5009426;28;20037;-71
2022/06/03 03:31:36;;;;;;;6.55;4.90;;;;;;;13.64;62.16;101892.81;5022440;28;20040;-71
2022/06/03 03:34:17;;;;;;;7.35;5.32;;;;;;;13.67;62.18;101892.94;5022073;28;20397;-71
2022/06/03 03:37:04;;;;;;;6.45;4.97;;;;;;;13.64;62.64;101890.25;5022164;28;20451;-71
2022/06/03 03:39:57;;;;;;;5.50;4.93;;;;;;;13.56;62.54;101889.13;5022239;28;20052;-71
2022/06/03 03:43:01;;;;;;;6.40;5.20;;;;;;;13.58;62.35;101885.75;5021745;28;20408;-71
2022/06/03 03:45:47;;;;;;;5.80;5.10;;;;;;;13.49;62.85;101882.03;5022612;28;20030;-71
2022/06/03 03:48:46;;;;;;;6.10;5.10;;;;;;;13.56;62.51;101882.25;4983810;28;20045;-71
2022/06/03 03:51:14;;;;;;;;;;;;;;;13.67;62.12;101880.03;5031385;28;20444;-71
2022/06/03 03:54:06;;;;;;;7.00;5.68;;;;;;;13.49;62.78;101880.31;5018544;28;19927;-71
2022/06/03 03:56:40;;;;;;;7.93;5.32;;;;;;;13.43;62.96;101874.06;5010787;28;22801;-71
2022/06/03 03:59:24;;;;;;;6.43;5.32;;;;;;;13.43;63.12;101880.09;5015265;28;20109;-71
2022/06/03 04:02:11;;;;;;;7.07;5.57;;;;;;;13.38;63.36;101881.66;5023843;28;20037;-71
2022/06/03 04:05:01;;;;;;;6.75;5.50;;;;;;;13.41;62.98;101885.25;5022388;28;20032;-71
2022/06/03 04:07:55;;;;;;;7.45;5.80;;;;;;;13.38;63.55;101884.25;5020822;28;20029;-71
2022/06/03 04:10:39;;;;;;;7.28;5.93;;;;;;;13.31;63.83;101879.72;5022261;28;20079;-71
2022/06/03 04:13:23;;;;;;;6.65;5.85;;;;;;;13.17;64.11;101876.63;5021249;28;20463;-71
2022/06/03 04:16:16;;;;;;;6.53;5.68;;;;;;;13.19;64.28;101868.94;5018746;28;20479;-71
2022/06/03 04:18:45;;;;;;;7.80;5.78;;;;;;;13.13;64.93;101867.91;5019670;28;20491;-71
2022/06/03 04:21:41;;;;;;;6.70;6.07;;;;;;;13.19;64.27;101856.91;5021229;28;20121;-71
2022/06/03 04:24:47;;;;;;;8.00;5.97;;;;;;;13.20;64.29;101868.97;5019319;28;20108;-71
2022/06/03 04:27:29;;;;;;;7.20;5.80;;;;;;;13.14;64.82;101866.19;4992552;28;20119;-71
2022/06/03 04:30:17;;;;;;;6.53;5.65;;;;;;;13.12;64.77;101870.44;5020499;28;20069;-71
2022/06/03 04:32:55;;;;;;;7.68;6.03;;;;;;;13.15;64.90;101870.53;5000025;28;20076;-71
2022/06/03 04:35:39;;;;;;;11.88;6.18;;;;;;;13.24;64.55;101862.25;5019401;28;20132;-71
2022/06/03 04:38:59;;;;;;;8.30;6.30;;;;;;;13.25;64.75;101858.84;5022357;28;20034;-71
2022/06/03 04:41:39;;;;;;;9.38;6.68;;;;;;;13.22;64.56;101862.19;5017493;28;20026;-71
2022/06/03 04:44:29;;;;;;;8.35;5.95;;;;;;;13.26;64.76;101861.47;5022703;28;20036;-71
2022/06/03 04:47:28;;;;;;;7.82;6.13;;;;;;;13.35;64.42;101871.25;5021426;28;20051;-71
2022/06/03 04:50:03;;;;;;;;;;;;;;;13.48;63.90;101873.38;5022774;28;20030;-71
2022/06/03 04:52:46;;;;;;;11.77;6.55;;;;;;;13.44;64.58;101865.47;5015984;28;19920;-71
2022/06/03 04:55:14;;;;;;;8.48;6.55;;;;;;;13.45;64.69;101872.41;5026340;28;20030;-71
2022/06/03 04:58:02;;;;;;;7.30;6.60;;;;;;;13.49;64.54;101877.72;5019978;28;20048;-71
2022/06/03 05:01:01;;;;;;;7.72;6.35;;;;;;;13.56;64.62;101878.78;5015306;28;20022;-71
2022/06/03 05:04:01;;;;;;;8.35;6.53;;;;;;;13.60;64.57;101885.81;5019689;28;20033;-71
2022/06/03 05:06:51;;;;;;;8.23;6.53;;;;;;;13.68;64.19;101880.06;5023643;28;20021;-72
2022/06/03 05:09:43;;;;;;;8.55;6.13;;;;;;;13.77;64.04;101878.59;5021401;28;20107;-71
2022/06/03 05:12:18;;;;;;;7.72;6.03;;;;;;;13.78;64.00;101876.06;5015512;28;20021;-70
2022/06/03 05:15:37;;;;;;;7.45;6.28;;;;;;;13.85;64.09;101883.19;5025483;28;20045;-70
2022/06/03 05:18:42;;;;;;;8.80;5.90;;;;;;;13.91;63.94;101877.31;4999843;28;20054;-72
2022/06/03 05:21:44;;;;;;;9.70;6.30;;;;;;;13.98;63.38;101879.25;5002912;28;20026;-71
2022/06/03 05:24:28;;;;;;;6.60;5.90;;;;;;;14.11;63.84;101878.78;5026231;28;20045;-72
2022/06/03 05:27:21;;;;;;;12.60;6.28;;;;;;;14.18;63.28;101877.25;5026168;28;20021;-71
2022/06/03 05:30:28;;;;;;;6.63;5.63;;;;;;;14.28;63.01;101868.94;5023589;28;20077;-71
2022/06/03 05:33:29;;;;;;;7.05;5.80;;;;;;;14.34;62.53;101858.75;4987697;28;20037;-71
2022/06/03 05:36:00;;;;;;;8.95;6.35;;;;;;;14.36;62.76;101866.56;5024236;28;20731;-71
2022/06/03 05:38:50;;;;;;;7.35;6.03;;;;;;;14.42;62.69;101858.97;5027550;28;20025;-71
2022/06/03 05:44:53;;;;;;;8.02;5.93;;;;;;;14.61;62.71;101866.44;5017014;28;21084;-71
2022/06/03 05:47:32;;;;;;;9.02;6.20;;;;;;;14.63;62.02;101866.50;5024237;28;20037;-71
2022/06/03 05:50:19;;;;;;;7.45;5.80;;;;;;;14.69;62.39;101861.50;5022089;28;20480;-71
2022/06/03 05:53:02;;;;;;;7.47;6.00;;;;;;;14.79;62.29;101858.28;5020284;28;20033;-71
2022/06/03 05:55:52;;;;;;;7.30;6.00;;;;;;;14.89;61.83;101868.06;5019608;28;20036;-71
2022/06/03 05:58:41;;;;;;;8.10;6.28;;;;;;;14.92;61.37;101855.19;5023614;28;20029;-70
2022/06/03 06:01:13;;;;;;;;;;;;;;;15.00;60.98;101861.47;5019672;28;20718;-71
2022/06/03 06:04:17;;;;;;;7.72;5.47;;;;;;;15.05;61.05;101861.59;5024312;28;19953;-72
2022/06/03 06:07:12;;;;;;;8.38;5.82;;;;;;;15.12;60.94;101860.03;5026515;28;20582;-71
2022/06/03 06:09:49;;;;;;;7.22;5.90;;;;;;;15.21;60.52;101862.84;5017484;28;20077;-71
2022/06/03 06:13:08;;;;;;;6.03;5.43;;;;;;;15.27;60.30;101866.44;5024117;28;20620;-71
2022/06/03 06:15:59;;;;;;;;;;;;;;;15.39;60.31;101859.81;4961903;28;20035;-71
2022/06/03 06:18:41;;;;;;;8.75;6.22;;;;;;;15.47;60.08;101855.69;4961957;28;20438;-71
2022/06/03 06:21:37;;;;;;;6.25;5.65;;;;;;;15.58;60.06;101859.41;5008968;28;20124;-71
2022/06/03 06:24:19;;;;;;;7.18;5.78;;;;;;;15.76;60.49;101867.66;5023300;28;20075;-71
2022/06/03 06:26:44;;;;;;;7.93;5.65;;;;;;;15.84;58.81;101869.56;5015604;28;20151;-72
2022/06/03 06:29:37;;;;;;;8.48;5.82;;;;;;;15.91;59.00;101874.03;5024956;28;20045;-72
2022/06/03 06:32:34;;;;;;;6.60;5.75;;;;;;;16.01;59.05;101863.88;5023145;28;20042;-72
2022/06/03 06:35:25;;;;;;;6.35;5.43;;;;;;;16.11;58.54;101864.09;5019580;28;20402;-72
2022/06/03 06:37:56;;;;;;;8.23;6.03;;;;;;;16.26;58.42;101856.59;5016660;28;20033;-72
2022/06/03 06:40:25;;;;;;;9.25;6.03;;;;;;;16.36;57.86;101862.03;5026955;28;20052;-72
2022/06/03 06:42:56;;;;;;;9.63;5.50;;;;;;;16.45;57.31;101855.28;5023072;28;20030;-72
2022/06/03 06:45:42;;;;;;;6.28;5.50;;;;;;;16.53;56.80;101858.91;5026295;28;20084;-73
2022/06/03 06:48:29;;;;;;;6.88;5.55;;;;;;;16.61;56.66;101858.19;5024564;28;20044;-73
2022/06/03 06:51:28;;;;;;;8.35;5.70;;;;;;;16.70;57.13;101860.13;5015451;28;20025;-73
2022/06/03 06:54:10;;;;;;;8.02;5.22;;;;;;;16.79;55.62;101854.22;5024267;28;20049;-72
2022/06/03 06:56:49;;;;;;;7.75;5.00;;;;;;;16.89;55.81;101862.22;5017198;28;20037;-72
2022/06/03 06:59:29;;;;;;;6.65;5.50;;;;;;;16.96;56.29;101865.78;5020298;28;20079;-72
2022/06/03 07:02:04;;;;;;;7.45;5.07;;;;;;;17.10;56.38;101869.50;5024240;28;20025;-73
2022/06/03 07:04:38;;;;;;;6.88;4.93;;;;;;;17.26;55.22;101856.78;5019303;28;20720;-73
2022/06/03 07:07:14;;;;;;;8.32;5.05;;;;;;;17.36;55.12;101858.69;5025175;28;20029;-72
2022/06/03 07:09:53;;;;;;;9.10;5.68;;;;;;;17.43;54.91;101860.53;5013257;28;20048;-72
2022/06/03 07:12:30;;;;;;;7.15;5.25;;;;;;;17.53;55.04;101867.59;5011796;28;20034;-73
2022/06/03 07:15:06;;;;;;;11.68;5.82;;;;;;;17.58;53.91;101865.94;5011766;28;20029;-72
2022/06/03 07:21:09;;;;;;;7.47;4.65;;;;;;;17.85;54.89;101856.84;5015738;28;20419;-72
2022/06/03 07:23:47;;;;;;;6.72;4.95;;;;;;;18.02;54.31;101868.38;5002786;28;20589;-72
2022/06/03 07:26:19;;;;;;;5.95;4.80;;;;;;;18.14;54.79;101846.78;5010101;28;20055;-72
2022/06/03 07:29:15;;;;;;;6.78;4.20;;;;;;;18.23;54.10;101849.53;5012246;28;20531;-72
2022/06/03 07:32:06;;;;;;;6.90;5.18;;;;;;;18.27;52.79;101842.66;5020517;28;20467;-73
2022/06/03 07:34:50;;;;;;;7.60;5.75;;;;;;;18.37;53.51;101845.34;5025230;28;20497;-72
2022/06/03 07:37:25;;;;;;;9.18;4.97;;;;;;;18.49;54.19;101845.47;5016336;28;20044;-72
2022/06/03 07:40:17;;;;;;;8.38;5.60;;;;;;;18.60;53.47;101855.16;5014830;28;20411;-72
2022/06/03 07:43:12;;;;;;;7.63;5.90;;;;;;;18.62;53.19;101849.09;5017074;28;20038;-73
2022/06/03 07:46:02;;;;;;;11.05;5.05;;;;;;;18.75;54.03;101837.13;5014750;28;20158;-73
2022/06/03 07:48:31;;;;;;;8.68;5.85;;;;;;;18.80;52.95;101844.97;5018478;28;20143;-72
2022/06/03 07:51:16;;;;;;;9.15;5.43;;;;;;;18.90;52.56;101844.22;5021304;28;20033;-73
2022/06/03 07:53:50;;;;;;;6.57;5.95;;;;;;;18.94;51.83;101843.38;5016775;28;20045;-73
2022/06/03 07:56:24;;;;;;;5.97;5.20;;;;;;;18.99;52.52;101829.53;5017997;28;20029;-73
2022/06/03 07:58:52;;;;;;;7.90;5.70;;;;;;;19.08;52.14;101833.06;5018944;28;20021;-70
2022/06/03 08:01:26;;;;;;;9.63;6.13;;;;;;;19.12;51.81;101827.91;5008235;28;20080;-71
2022/06/03 08:03:52;;;;;;;6.70;5.72;;;;;;;19.19;52.32;101828.81;5016351;28;20033;-71
2022/06/03 08:10:56;;;;;;;8.57;5.60;;;;;;;19.25;51.48;101834.97;5017902;28;20041;-71
2022/06/03 08:12:02;;;;;;;7.85;5.93;;;;;;;19.42;50.77;101829.00;5022074;28;20056;-71
2022/06/03 08:14:28;;;;;;;8.75;5.95;;;;;;;19.39;50.75;101819.41;5019689;28;20044;-71
2022/06/03 08:16:54;;;;;;;6.88;5.70;;;;;;;19.51;51.44;101826.44;5014947;28;20037;-71
2022/06/03 08:19:27;;;;;;;7.95;5.95;;;;;;;19.57;50.85;101818.66;5016260;28;20050;-71
2022/06/03 08:21:57;;;;;;;7.45;5.57;;;;;;;19.53;50.11;101809.06;5015612;28;20029;-72
2022/06/03 08:24:30;;;;;;;7.68;5.43;;;;;;;19.61;50.55;101798.72;5018565;28;20022;-71
2022/06/03 08:27:01;;;;;;;7.32;6.03;;;;;;;19.68;49.59;101797.88;5014474;28;20018;-71
2022/06/03 08:29:48;;;;;;;6.97;5.97;;;;;;;19.69;50.02;101795.28;5016365;28;20029;-71
2022/06/03 08:32:36;;;;;;;6.05;5.15;;;;;;;19.83;50.14;101796.19;5015341;28;21138;-71
2022/06/03 08:35:08;;;;;;;6.82;5.70;;;;;;;19.87;48.39;101809.28;5015040;28;20061;-70
2022/06/03 08:37:39;;;;;;;6.78;5.43;;;;;;;19.92;48.93;101795.41;5015561;28;20041;-70
2022/06/03 08:40:20;;;;;;;8.40;5.53;;;;;;;19.97;48.46;101800.66;5015681;28;20037;-71
2022/06/03 08:43:00;;;;;;;6.00;5.00;;;;;;;20.11;49.38;101803.31;5015455;28;20380;-70
2022/06/03 08:45:55;;;;;;;6.88;5.40;;;;;;;20.14;49.78;101803.28;5013435;28;20032;-71
2022/06/03 08:48:28;;;;;;;7.97;5.40;;;;;;;20.19;49.33;101804.19;5020292;28;20072;-71
2022/06/03 08:50:59;;;;;;;5.60;5.00;;;;;;;20.19;48.03;101797.22;5018211;28;20029;-71
2022/06/03 08:53:27;;;;;;;5.97;5.07;;;;;;;20.26;48.41;101793.78;5020068;28;20053;-71
2022/06/03 08:55:55;;;;;;;8.30;5.47;;;;;;;20.27;48.49;101795.53;5019906;28;20128;-72
2022/06/03 08:58:42;;;;;;;7.03;4.80;;;;;;;20.38;49.32;101798.16;5027451;28;20040;-72
2022/06/03 09:01:13;;;;;;;6.18;4.03;;;;;;;20.45;48.28;101799.06;5023010;28;20099;-74
2022/06/03 09:03:53;;;;;;;5.68;4.20;;;;;;;20.51;48.18;101805.19;5023809;28;20033;-71
2022/06/03 09:06:35;;;;;;;5.03;4.53;;;;;;;20.49;47.49;101801.69;5021029;28;20041;-73
2022/06/03 09:09:13;;;;;;;5.43;4.60;;;;;;;20.55;46.73;101800.84;5032191;28;20108;-73
2022/06/03 09:11:38;;;;;;;6.60;4.40;;;;;;;20.55;45.71;101806.06;5034293;28;20024;-73
2022/06/03 09:14:08;;;;;;;7.15;4.60;;;;;;;20.55;46.93;101800.84;5031192;28;20051;-73
2022/06/03 09:16:35;;;;;;;7.07;4.38;;;;;;;20.59;47.23;101803.47;5036241;28;20144;-74
2022/06/03 09:19:30;;;;;;;7.47;3.67;;;;;;;20.67;47.00;101800.84;5033334;28;20063;-73
2022/06/03 09:21:59;;;;;;;4.63;3.40;;;;;;;20.80;46.49;101793.88;5023868;28;20049;-73
2022/06/03 09:24:26;;;;;;;;;;;;;;;20.88;46.40;101789.56;5030549;28;20468;-73
2022/06/03 09:26:57;;;;;;;6.15;3.50;;;;;;;21.08;46.67;101787.81;5029562;28;20374;-72
2022/06/03 09:29:24;;;;;;;4.20;3.80;;;;;;;21.15;45.52;101801.75;5025538;28;20049;-71
2022/06/03 09:31:59;;;;;;;5.90;3.17;;;;;;;21.26;45.22;101797.38;5035770;28;20036;-72
2022/06/03 09:34:48;;;;;;;6.35;3.70;;;;;;;21.26;43.84;101800.00;5032975;28;20037;-72
2022/06/03 09:37:20;;;;;;;;;;;;;;;21.31;44.37;101798.28;5032742;28;20030;-72
2022/06/03 09:39:49;;;;;;;3.20;2.80;;;;;;;21.33;42.12;101795.66;5031363;28;19976;-73
2022/06/03 09:42:18;;;;;;;4.53;2.88;;;;;;;21.41;42.77;101792.13;5026877;28;20543;-73
2022/06/03 09:44:46;;;;;;;4.60;3.05;;;;;;;21.52;41.82;101788.63;5031756;28;20031;-71
2022/06/03 09:47:16;;;;;;;7.55;2.78;;;;;;;21.62;41.84;101777.28;5030132;28;20027;-72
2022/06/03 09:49:46;;;;;;;5.90;2.63;;;;;;;21.66;41.40;101779.03;5028742;28;20035;-72
2022/06/03 09:52:15;;;;;;;4.10;2.10;;;;;;;21.76;41.68;101778.09;5032093;28;20096;-72
2022/06/03 09:54:43;;;;;;;3.22;2.42;;;;;;;21.79;40.45;101774.59;5028246;28;20021;-72
2022/06/03 09:57:26;;;;;;;4.22;2.40;;;;;;;21.87;41.13;101776.31;5029635;28;20739;-74
2022/06/03 09:59:57;;;;;;;3.92;1.88;;;;;;;21.97;40.25;101776.28;5022779;28;20026;-75
2022/06/03 10:02:24;;;;;;;2.65;1.65;;;;;;;22.08;38.56;101788.41;5027665;28;20037;-73
2022/06/03 10:04:50;;;;;;;1.98;1.50;;;;;;;22.20;38.94;101766.56;5042056;28;20029;-71
2022/06/03 10:07:15;;;;;;;5.18;1.90;;;;;;;22.20;38.15;101769.19;5032223;28;20032;-70
2022/06/03 10:12:49;;;;;;;2.75;2.13;;;;;;;22.27;38.03;101770.91;5031386;28;20522;-70
2022/06/03 10:18:03;;;;;;;3.67;1.70;;;;;;;22.47;38.98;101757.69;5031034;28;19960;-76
2022/06/03 10:20:29;;;;;;;1.70;1.40;;;;;;;22.55;38.53;101758.47;5028937;28;20026;-74
2022/06/03 10:22:55;;;;;;;3.72;1.80;;;;;;;22.60;37.49;101768.94;5028174;28;20082;-74
2022/06/03 10:25:20;;;;;;;2.08;1.50;;;;;;;22.66;37.83;101754.03;5027805;28;20792;-76
2022/06/03 10:27:46;;;;;;;3.80;1.90;;;;;;;22.58;37.61;101752.38;5033523;28;20132;-75
2022/06/03 10:30:28;;;;;;;2.85;1.73;;;;;;;22.66;37.47;101755.78;5031514;28;20025;-72
2022/06/03 10:32:54;;;;;;;4.88;1.92;;;;;;;22.62;37.00;101744.44;5024143;28;20032;-75
2022/06/03 10:35:26;;;;;;;2.75;1.40;;;;;;;22.67;34.91;101742.66;5030132;28;20036;-74
2022/06/03 10:37:57;;;;;;;1.85;1.20;;;;;;;22.79;36.14;101733.81;5028341;28;20086;-75
2022/06/03 10:40:26;;;;;;;3.40;1.27;;;;;;;22.88;35.93;101738.16;5030083;28;20029;-75
2022/06/03 10:42:57;;;;;;;4.10;1.65;;;;;;;22.95;36.67;101745.97;5027814;28;20083;-77
2022/06/03 10:45:33;;;;;;;3.67;1.70;;;;;;;23.03;36.71;101738.00;5026375;28;20092;-73
2022/06/03 10:47:59;;;;;;;2.72;1.52;;;;;;;23.17;35.05;101743.09;5029576;28;20033;-76
2022/06/03 10:50:33;;;;;;;3.53;1.90;;;;;;;23.18;35.67;101740.50;5027155;28;20037;-76
2022/06/03 11:01:46;;;;;;;4.00;1.48;;;;;;;23.27;34.08;101737.75;5032358;28;20044;-76
2022/06/03 11:04:24;;;;;;;2.95;1.73;;;;;;;23.19;34.89;101744.84;5026544;28;20040;-75
2022/06/03 11:06:49;;;;;;;5.07;2.00;;;;;;;23.11;34.86;101735.31;5021418;28;20445;-74
2022/06/03 11:09:15;;;;;;;2.15;1.60;;;;;;;23.10;35.58;101742.31;5024536;28;20067;-71
2022/06/03 11:11:45;;;;;;;2.42;1.50;;;;;;;23.17;36.52;101730.00;5029981;28;20037;-68
2022/06/03 11:14:28;;;;;;;3.22;1.75;;;;;;;23.16;36.21;101717.75;5023699;28;20054;-69
2022/06/03 11:16:53;;;;;;;2.40;2.20;;;;;;;23.06;36.33;101727.50;5023801;28;20361;-69
2022/06/03 11:19:20;;;;;;;4.00;2.50;;;;;;;22.96;36.51;101726.72;5025207;28;20068;-73
2022/06/03 11:21:46;;;;;;;4.05;2.60;;;;;;;22.96;37.58;101725.84;5028054;28;20022;-70
2022/06/03 11:24:13;;;;;;;4.65;1.80;;;;;;;22.94;37.70;101709.25;5022304;28;20067;-72
2022/06/03 11:26:43;;;;;;;4.05;2.00;;;;;;;22.97;37.51;101714.47;5024179;28;20026;-75
2022/06/03 11:29:17;;;;;;;3.38;1.50;;;;;;;22.97;36.92;101711.84;5032782;28;20033;-73
2022/06/03 11:31:46;;;;;;;1.42;1.20;;;;;;;23.02;34.93;101710.03;5032798;28;20037;-74
2022/06/03 11:34:56;;;;;;;1.27;1.10;;;;;;;23.12;34.13;101714.31;5028966;28;20048;-73
2022/06/03 11:37:28;;;;;;;2.78;1.10;;;;;;;23.23;33.25;101709.81;5027271;28;20049;-75
2022/06/03 11:40:01;;;;;;;2.50;0.80;;;;;;;23.30;32.33;101708.00;5024257;28;20048;-74
2022/06/03 11:42:33;;;;;;;3.03;1.00;;;;;;;23.35;32.18;101703.56;5032840;28;20037;-74
2022/06/03 11:45:05;;;;;;;0.80;0.70;;;;;;;23.45;32.75;101701.69;5030121;28;20026;-74
2022/06/03 11:47:38;;;;;;;4.22;1.60;;;;;;;23.53;33.26;101713.84;5029622;28;20076;-74
2022/06/03 11:50:07;;;;;;;1.23;1.00;;;;;;;23.52;31.57;101704.22;5026309;28;20437;-74
2022/06/03 11:52:33;;;;;;;1.60;1.10;;;;;;;23.56;32.49;101702.44;5028571;28;20036;-73
2022/06/03 11:54:59;;;;;;;3.45;1.40;;;;;;;23.47;31.92;101703.41;5026076;28;20041;-73
2022/06/03 11:57:24;;;;;;;2.03;0.85;;;;;;;23.46;31.46;101703.44;5029682;28;20438;-73
2022/06/03 11:59:54;;;;;;;2.08;1.15;;;;;;;23.50;32.40;101699.88;5024806;28;20057;-73
2022/06/03 12:02:34;;;;;;;2.75;1.40;;;;;;;23.49;33.06;101716.53;5025313;28;20119;-73
2022/06/03 12:05:05;;;;;;;2.13;1.20;;;;;;;23.41;33.53;101708.72;5026965;28;20028;-73
2022/06/03 12:07:38;;;;;;;4.97;1.67;;;;;;;23.35;33.50;101706.16;5021928;28;20037;-73
2022/06/03 12:10:23;;;;;;;3.55;1.30;;;;;;;23.42;34.37;101709.59;5028939;28;20773;-73
2022/06/03 12:13:15;;;;;;;3.20;1.20;;;;;;;23.41;34.74;101702.63;5024217;28;20113;-73
2022/06/03 12:15:52;;;;;;;2.40;1.20;;;;;;;23.49;33.82;101701.66;5020254;28;20021;-73
2022/06/03 12:18:33;;;;;;;3.45;1.25;;;;;;;23.53;33.66;101710.34;5026360;28;20076;-73
2022/06/03 12:21:15;;;;;;;2.55;1.55;;;;;;;23.51;33.44;101702.50;5023658;28;20032;-73
2022/06/03 12:23:43;;;;;;;3.17;1.10;;;;;;;23.51;34.51;101704.25;5020331;28;20415;-73
2022/06/03 12:26:13;;;;;;;2.33;1.17;;;;;;;23.55;33.66;101695.47;5023344;28;20413;-73
2022/06/03 12:28:41;;;;;;;2.47;1.20;;;;;;;23.62;33.18;101691.91;5019199;28;20041;-72
2022/06/03 12:31:32;;;;;;;2.95;1.10;;;;;;;23.75;33.60;101690.84;5022609;28;20040;-73
2022/06/03 12:33:58;;;;;;;1.13;0.95;;;;;;;23.75;32.27;101687.34;5018758;28;20056;-73
2022/06/03 12:36:51;;;;;;;1.35;1.13;;;;;;;23.79;32.71;101683.81;5016762;28;20033;-73
2022/06/03 12:39:19;;;;;;;4.10;1.30;;;;;;;23.85;33.41;101680.22;5024355;28;20479;-73
2022/06/03 12:41:44;;;;;;;2.25;1.17;;;;;;;23.84;32.38;101683.72;5024516;28;20036;-73
2022/06/03 12:44:37;;;;;;;4.13;1.20;;;;;;;23.84;31.87;101673.22;5022051;28;20037;-73
2022/06/03 12:47:17;;;;;;;3.45;1.40;;;;;;;23.76;32.00;101676.81;5027453;28;20417;-72
2022/06/03 12:49:43;;;;;;;1.63;1.13;;;;;;;23.76;31.68;101679.44;5016084;28;20071;-74
2022/06/03 12:52:12;;;;;;;2.00;1.25;;;;;;;23.76;31.56;101678.56;5020877;28;20025;-75
2022/06/03 12:54:48;;;;;;;1.65;1.20;;;;;;;23.83;32.89;101677.59;5019094;28;20033;-74